Laguna, NM (87026)

10:16 PM MDT on August 01, 2015 (GMT -0600)
Grants-Milan Municipal | | Change Station
CLOSE
Current Station
Airport
Location: Grants-Milan,
Elevation: 6519 ft
Nearby Weather Stations

Elev 6519 ft 35.17 °N, 107.90 °W | Updated 21 minutes ago

Rain
Rain
61 °F
Feels Like 61 °F
N
0
Wind Variable Wind from North

Today
High -- | Low -- °F
--% Chance of Precip.
Yesterday
High -- | Low -- °F
Precip. -- in
6:18 AM 8:12 PM
Waning Gibbous, 96% visible
Pressure 30.34 in
Visibility 7.0 miles
Clouds Scattered Clouds 900 ft
Mostly Cloudy 6500 ft
Overcast 9500 ft
Dew Point 60 °F
Humidity 98%
Rainfall 0.54 in
Snow Depth Not available.
UV 0 out of 12
Pollen 2.30 out of 12
Air Quality Not available.
Flu Activity Not available.
METAR KGNT 020355Z AUTO 00000KT 7SM -RA SCT009 BKN065 OVC095 16/16 A3034 RMK AO2 LTG DSNT E P0016 T01600157

More Conditions Fewer Conditions

Pressure 30.34 in
Visibility 7.0 miles
Clouds Scattered Clouds 900 ft
Mostly Cloudy 6500 ft
Overcast 9500 ft
Dew Point 60 °F
Humidity 98%
Rainfall 0.54 in
Snow Depth Not available.
UV 0 out of 12
Pollen 2.30 out of 12
Air Quality Not available.
Flu Activity Not available.
METAR KGNT 020355Z AUTO 00000KT 7SM -RA SCT009 BKN065 OVC095 16/16 A3034 RMK AO2 LTG DSNT E P0016 T01600157

More Conditions Fewer Conditions

10-Day Weather Forecast

×

Almanac

Astronomy

Aug. 01, 2015 Rise Set
Actual Time
Civil Twilight
Nautical Twilight
Astronomical Twilight
Moon
Length of Visible Light
Length of Day
Tomorrow will be .
, % of the Moon is Illuminated

Today's Extremes

State Highs State Lows

Community

WunderPhotos

Upload Photos

1,843,182 photos uploaded!

WunderBlogs® & News

Nearby

Air Quality

  Air Quality AQ Index Pollutant
Not available.

Snow Depth

Station Depth Elevation

Earthquake Activity

City Distance Mag. Time & Date
Minimum magnitude displayed is 2.5.

Coastal Water Temperatures

Place Temperature

Stations

Nearby Weather Stations

Station Location Temp. Windchill Dew Point Humidity Wind Precip. Elev Updated Type